Time;durP1;ratioP1;P1;durP2;ratioP2;P2;SDS_P1;SDS_P2;PMS_P1;PMS_P2;Temp;Humidity;BMP_temperature;BMP_pressure;BME280_temperature;BME280_humidity;BME280_pressure;Samples;Min_cycle;Max_cycle;Signal;HPM_P1;HPM_P2
2021/03/16 00:01:46;;;;;;;5.20;4.10;;;7.90;92.10;;;;;;4973457;28;20031;-76
2021/03/16 00:04:12;;;;;;;5.00;4.10;;;7.90;92.20;;;;;;4973709;28;20045;-75
2021/03/16 00:06:38;;;;;;;5.25;4.32;;;8.00;91.90;;;;;;4955996;28;20377;-79
2021/03/16 00:09:04;;;;;;;5.13;4.25;;;8.00;91.20;;;;;;4973476;28;20384;-76
2021/03/16 00:11:29;;;;;;;5.10;4.50;;;7.90;90.80;;;;;;4973824;28;20443;-76
2021/03/16 00:13:55;;;;;;;4.75;4.22;;;7.90;91.50;;;;;;4973384;28;20027;-78
2021/03/16 00:16:23;;;;;;;5.65;4.60;;;7.70;90.80;;;;;;4973248;28;20030;-79
2021/03/16 00:18:52;;;;;;;4.82;4.32;;;7.70;91.10;;;;;;4973664;28;20030;-77
2021/03/16 00:21:18;;;;;;;5.70;4.55;;;7.80;91.40;;;;;;4973829;28;20054;-82
2021/03/16 00:23:43;;;;;;;5.00;4.50;;;7.80;92.20;;;;;;4973576;28;20121;-79
2021/03/16 00:26:09;;;;;;;5.22;4.40;;;7.80;92.40;;;;;;4973230;28;20499;-79
2021/03/16 00:28:35;;;;;;;5.57;4.53;;;7.80;91.80;;;;;;4973406;28;20031;-78
2021/03/16 00:31:01;;;;;;;5.95;4.43;;;7.80;92.50;;;;;;4973043;28;20042;-76
2021/03/16 00:33:27;;;;;;;4.78;4.10;;;7.60;92.10;;;;;;4973494;28;20039;-75
2021/03/16 00:35:53;;;;;;;5.25;3.80;;;7.90;91.10;;;;;;4972538;28;20038;-77
2021/03/16 00:38:19;;;;;;;5.75;3.97;;;8.00;90.00;;;;;;4973072;28;20019;-76
2021/03/16 00:40:45;;;;;;;5.43;3.92;;;8.00;89.90;;;;;;4973060;28;20029;-75
2021/03/16 00:43:10;;;;;;;4.55;4.10;;;8.00;88.50;;;;;;4972754;28;20039;-76
2021/03/16 00:45:36;;;;;;;4.30;3.90;;;8.10;88.10;;;;;;4972606;28;20134;-76
2021/03/16 00:48:03;;;;;;;4.43;3.55;;;8.00;88.60;;;;;;4972694;28;20105;-77
2021/03/16 00:50:29;;;;;;;4.07;3.55;;;8.10;88.30;;;;;;4972865;28;20555;-76
2021/03/16 00:52:54;;;;;;;4.65;3.85;;;8.00;88.20;;;;;;4972657;28;20113;-78
2021/03/16 00:55:20;;;;;;;4.38;3.90;;;8.00;88.90;;;;;;4973083;28;20037;-77
2021/03/16 00:57:46;;;;;;;4.13;3.67;;;8.00;89.20;;;;;;4973140;28;20038;-77
2021/03/16 01:00:12;;;;;;;6.80;3.60;;;8.00;89.70;;;;;;4972689;28;20035;-76
2021/03/16 01:02:38;;;;;;;3.92;3.50;;;8.00;90.30;;;;;;4955171;28;20045;-76
2021/03/16 01:05:04;;;;;;;3.80;3.40;;;8.00;90.70;;;;;;4955046;28;20393;-75
2021/03/16 01:07:30;;;;;;;4.35;3.83;;;8.00;91.30;;;;;;4972715;28;20019;-77
2021/03/16 01:09:56;;;;;;;5.35;3.67;;;7.80;92.30;;;;;;4972519;28;20046;-76
2021/03/16 01:12:22;;;;;;;4.38;3.90;;;7.90;92.80;;;;;;4972456;28;20030;-76
2021/03/16 01:14:48;;;;;;;4.35;3.75;;;7.90;93.20;;;;;;4955374;28;20499;-76
2021/03/16 01:17:13;;;;;;;4.53;3.85;;;7.90;93.90;;;;;;4972763;28;20039;-75
2021/03/16 01:19:39;;;;;;;4.15;3.75;;;7.80;94.90;;;;;;4972920;28;20066;-76
2021/03/16 01:22:05;;;;;;;5.93;4.05;;;7.80;95.40;;;;;;4971417;28;20035;-77
2021/03/16 01:24:31;;;;;;;4.25;3.85;;;7.80;95.80;;;;;;4972767;28;20034;-80
2021/03/16 01:26:56;;;;;;;4.65;3.80;;;7.80;95.40;;;;;;4973009;28;20095;-82
2021/03/16 01:29:23;;;;;;;4.38;3.58;;;7.80;94.60;;;;;;4972572;28;20030;-77
2021/03/16 01:31:48;;;;;;;5.45;3.70;;;7.80;94.80;;;;;;4972445;28;20069;-76
2021/03/16 01:34:14;;;;;;;4.45;3.80;;;7.80;94.50;;;;;;4972151;28;20377;-76
2021/03/16 01:36:40;;;;;;;4.65;3.88;;;7.80;94.90;;;;;;4972450;28;20031;-78
2021/03/16 01:39:06;;;;;;;6.13;3.75;;;7.80;94.90;;;;;;4972867;28;20624;-78
2021/03/16 01:41:31;;;;;;;4.30;3.90;;;7.80;95.60;;;;;;4954163;28;20027;-78
2021/03/16 01:43:57;;;;;;;4.78;3.97;;;7.70;96.00;;;;;;4953004;29;20040;-79
2021/03/16 01:46:23;;;;;;;4.72;4.00;;;7.60;96.00;;;;;;4953582;29;20469;-79
2021/03/16 01:48:50;;;;;;;5.05;4.05;;;7.50;96.80;;;;;;4953564;29;20038;-78
2021/03/16 01:51:18;;;;;;;4.28;3.88;;;7.70;96.30;;;;;;4953616;28;20070;-81
2021/03/16 01:53:44;;;;;;;5.30;3.90;;;7.50;95.20;;;;;;4956048;29;20031;-78
2021/03/16 01:56:12;;;;;;;4.80;3.97;;;7.70;95.30;;;;;;4957437;28;20027;-79
2021/03/16 01:58:40;;;;;;;4.13;3.55;;;7.70;95.00;;;;;;4957432;29;20094;-79
2021/03/16 02:01:06;;;;;;;4.18;3.78;;;7.70;94.60;;;;;;4957246;29;20034;-77
2021/03/16 02:03:32;;;;;;;4.50;3.92;;;7.80;93.00;;;;;;4955894;29;20031;-77
2021/03/16 02:05:58;;;;;;;4.45;3.90;;;7.80;92.40;;;;;;4956862;29;20031;-77
2021/03/16 02:08:52;;;;;;;4.35;3.92;;;7.80;92.30;;;;;;4956898;29;20105;-77
2021/03/16 02:11:40;;;;;;;4.35;3.90;;;8.00;91.60;;;;;;4956727;29;20106;-76
2021/03/16 02:14:28;;;;;;;4.07;3.60;;;8.00;90.00;;;;;;4956378;29;20027;-77
2021/03/16 02:17:05;;;;;;;4.30;3.70;;;8.00;90.50;;;;;;4956422;29;20111;-78
2021/03/16 02:19:49;;;;;;;4.65;3.80;;;7.90;91.80;;;;;;4956364;29;20086;-77
2021/03/16 02:22:16;;;;;;;4.40;3.67;;;7.90;91.60;;;;;;4956473;29;20034;-76
2021/03/16 02:25:19;;;;;;;4.00;3.60;;;7.80;91.60;;;;;;4956238;29;20046;-75
2021/03/16 02:28:04;;;;;;;4.60;3.78;;;7.90;91.70;;;;;;4956235;29;20028;-76
2021/03/16 02:30:31;;;;;;;5.22;3.75;;;7.80;91.80;;;;;;4956702;29;20081;-78
2021/03/16 02:32:59;;;;;;;4.40;3.95;;;7.80;92.30;;;;;;4956748;29;20027;-76
2021/03/16 02:35:26;;;;;;;5.20;4.10;;;7.90;91.80;;;;;;4956587;29;20039;-77
2021/03/16 02:37:55;;;;;;;4.47;3.88;;;7.90;91.30;;;;;;4956571;29;20082;-80
2021/03/16 02:40:24;;;;;;;4.38;3.92;;;7.90;91.30;;;;;;4963052;28;20054;-78
2021/03/16 02:42:50;;;;;;;5.60;3.78;;;7.90;91.10;;;;;;4975909;28;20369;-78
2021/03/16 02:45:16;;;;;;;4.88;4.10;;;7.90;91.20;;;;;;4975081;28;20564;-79
2021/03/16 02:47:44;;;;;;;4.63;3.85;;;7.80;92.10;;;;;;4975254;28;20023;-77
2021/03/16 02:50:13;;;;;;;5.45;4.47;;;7.80;91.90;;;;;;4975373;28;20409;-78
2021/03/16 02:52:39;;;;;;;5.43;4.93;;;7.80;92.50;;;;;;4975687;28;20508;-77
2021/03/16 02:55:06;;;;;;;4.95;4.32;;;7.70;92.90;;;;;;4975331;28;20126;-78
2021/03/16 02:57:33;;;;;;;4.80;4.20;;;7.70;93.30;;;;;;4957772;28;20050;-77
2021/03/16 03:00:01;;;;;;;4.85;4.28;;;7.70;93.70;;;;;;4974958;28;20362;-77
2021/03/16 03:02:29;;;;;;;4.50;3.92;;;7.70;93.60;;;;;;4975334;28;20416;-76
2021/03/16 03:04:56;;;;;;;4.90;4.32;;;7.70;93.60;;;;;;4974075;28;20137;-78
2021/03/16 03:07:25;;;;;;;4.90;4.45;;;7.70;93.70;;;;;;4974891;28;20070;-76
2021/03/16 03:09:50;;;;;;;4.93;4.43;;;7.70;93.80;;;;;;4957736;28;20062;-77
2021/03/16 03:12:16;;;;;;;6.45;4.07;;;7.60;94.20;;;;;;4974868;28;20054;-77
2021/03/16 03:14:42;;;;;;;4.95;4.40;;;7.70;94.20;;;;;;4973734;28;20102;-77
2021/03/16 03:17:08;;;;;;;5.25;4.22;;;7.70;94.10;;;;;;4973403;28;20134;-77
2021/03/16 03:19:34;;;;;;;4.60;3.97;;;7.60;94.00;;;;;;4975076;28;20031;-77
2021/03/16 03:22:38;;;;;;;5.10;3.80;;;7.70;93.70;;;;;;4974666;28;20031;-78
2021/03/16 03:25:10;;;;;;;4.20;3.80;;;7.60;92.90;;;;;;4974717;28;20034;-78
2021/03/16 03:27:44;;;;;;;5.43;4.50;;;7.70;92.10;;;;;;4974293;28;20023;-77
2021/03/16 03:30:11;;;;;;;4.45;4.00;;;7.70;92.40;;;;;;4974560;28;20031;-78
2021/03/16 03:32:38;;;;;;;5.47;4.20;;;7.70;92.70;;;;;;4974626;28;20057;-79
2021/03/16 03:35:06;;;;;;;6.38;4.30;;;7.70;92.70;;;;;;4957030;28;20026;-77
2021/03/16 03:37:33;;;;;;;5.15;4.07;;;7.70;92.40;;;;;;4975018;28;20073;-79
2021/03/16 03:40:03;;;;;;;5.07;4.38;;;7.70;92.00;;;;;;4972595;28;20026;-79
2021/03/16 03:42:31;;;;;;;4.67;4.10;;;7.70;91.90;;;;;;4955619;29;20030;-78
2021/03/16 03:44:59;;;;;;;5.03;4.10;;;7.80;91.00;;;;;;4954317;29;20047;-79
2021/03/16 03:47:28;;;;;;;5.20;4.20;;;7.80;90.80;;;;;;4955228;29;20027;-76
2021/03/16 03:49:54;;;;;;;5.95;4.10;;;7.80;90.70;;;;;;4955058;29;20062;-77
2021/03/16 03:52:21;;;;;;;6.40;4.10;;;7.80;90.80;;;;;;4954769;29;20042;-77
2021/03/16 03:54:48;;;;;;;4.63;4.13;;;7.80;90.90;;;;;;4954538;29;20405;-75
2021/03/16 03:57:15;;;;;;;5.45;4.38;;;7.70;91.10;;;;;;4954817;28;20079;-76
2021/03/16 03:59:46;;;;;;;4.90;4.32;;;7.70;91.10;;;;;;4954592;29;20019;-79
2021/03/16 04:02:13;;;;;;;4.82;4.20;;;7.70;90.90;;;;;;4953589;29;20042;-80
2021/03/16 04:04:39;;;;;;;4.72;4.18;;;7.70;90.20;;;;;;4955068;29;20040;-79
2021/03/16 04:07:09;;;;;;;5.20;4.40;;;7.70;89.60;;;;;;4954674;29;20031;-78
2021/03/16 04:09:36;;;;;;;4.50;4.10;;;7.80;88.50;;;;;;4954768;29;20035;-77
2021/03/16 04:12:03;;;;;;;5.05;4.20;;;7.80;88.10;;;;;;4954651;29;20701;-76
2021/03/16 04:14:29;;;;;;;7.53;4.50;;;7.80;87.80;;;;;;4954269;28;20089;-79
2021/03/16 04:16:57;;;;;;;6.35;4.10;;;7.80;86.60;;;;;;4954253;29;20023;-77
2021/03/16 04:19:23;;;;;;;5.30;4.40;;;7.80;86.90;;;;;;4954786;29;20031;-78
2021/03/16 04:21:50;;;;;;;4.82;3.97;;;7.80;87.00;;;;;;4954111;29;20122;-76
2021/03/16 04:24:17;;;;;;;4.90;4.20;;;7.80;87.00;;;;;;4954531;29;20035;-76
2021/03/16 04:26:43;;;;;;;5.13;3.97;;;7.80;85.80;;;;;;4954820;29;20019;-77
2021/03/16 04:29:08;;;;;;;5.70;4.10;;;7.80;85.20;;;;;;4954421;29;20038;-77
2021/03/16 04:31:34;;;;;;;5.15;4.30;;;7.80;85.90;;;;;;4953928;29;20024;-77
2021/03/16 04:34:00;;;;;;;7.72;3.97;;;7.80;85.80;;;;;;4954763;29;20413;-79
2021/03/16 04:36:25;;;;;;;5.18;4.22;;;7.80;84.40;;;;;;4954456;29;20067;-77
2021/03/16 04:38:51;;;;;;;4.82;4.00;;;7.90;83.10;;;;;;4954012;29;20027;-76
2021/03/16 04:41:17;;;;;;;4.75;4.18;;;7.90;81.90;;;;;;4965242;28;20034;-78
2021/03/16 04:43:45;;;;;;;5.18;4.03;;;7.90;79.80;;;;;;4973051;28;20038;-83
2021/03/16 04:46:11;;;;;;;4.90;4.07;;;7.90;80.30;;;;;;4973984;28;20465;-85
2021/03/16 04:48:38;;;;;;;4.82;3.80;;;7.90;80.70;;;;;;4973735;28;20110;-81
2021/03/16 04:51:04;;;;;;;5.38;4.15;;;7.80;81.30;;;;;;4973485;28;20045;-82
2021/03/16 04:53:29;;;;;;;4.90;4.00;;;7.70;82.00;;;;;;4973781;28;20035;-77
2021/03/16 04:55:55;;;;;;;4.63;4.00;;;7.80;82.40;;;;;;4973641;28;20038;-77
2021/03/16 04:58:21;;;;;;;5.85;4.40;;;7.80;81.50;;;;;;4973601;28;20163;-79
2021/03/16 05:00:47;;;;;;;6.00;4.60;;;7.70;81.60;;;;;;4973148;28;20027;-80
2021/03/16 05:03:12;;;;;;;6.50;4.22;;;7.80;80.40;;;;;;4973395;28;20038;-79
2021/03/16 05:05:38;;;;;;;5.05;4.30;;;7.80;80.10;;;;;;4972938;28;20041;-77
2021/03/16 05:08:04;;;;;;;4.50;4.00;;;7.80;80.00;;;;;;4973053;28;20033;-78
2021/03/16 05:10:30;;;;;;;4.88;4.28;;;7.80;80.50;;;;;;4972584;28;20031;-76
2021/03/16 05:12:56;;;;;;;4.80;3.88;;;7.80;81.30;;;;;;4972665;28;20026;-78
2021/03/16 05:15:22;;;;;;;6.00;4.35;;;7.90;80.70;;;;;;4955386;28;20035;-76
2021/03/16 05:17:47;;;;;;;5.15;4.05;;;7.90;80.30;;;;;;4973347;28;20027;-78
2021/03/16 05:20:13;;;;;;;6.95;4.38;;;7.90;79.00;;;;;;4973160;28;20035;-80
2021/03/16 05:22:39;;;;;;;5.18;4.05;;;8.00;79.10;;;;;;4972671;28;20536;-76
2021/03/16 05:25:07;;;;;;;5.63;4.10;;;8.00;77.40;;;;;;4973300;28;20063;-80
2021/03/16 05:27:33;;;;;;;6.10;4.40;;;8.10;75.70;;;;;;4974430;28;20074;-78
2021/03/16 05:29:58;;;;;;;6.72;4.30;;;8.10;76.00;;;;;;4977050;28;20026;-81
2021/03/16 05:32:24;;;;;;;5.72;4.50;;;8.00;76.30;;;;;;4977762;28;20085;-78
2021/03/16 05:34:50;;;;;;;6.70;4.53;;;8.00;76.80;;;;;;4977649;28;20027;-79
2021/03/16 05:37:16;;;;;;;5.45;4.10;;;8.10;76.60;;;;;;4977907;28;20031;-80
2021/03/16 05:39:42;;;;;;;4.80;4.25;;;8.10;77.80;;;;;;4977011;28;20019;-80
2021/03/16 05:42:09;;;;;;;5.07;4.22;;;8.00;78.20;;;;;;4960137;28;20392;-77
2021/03/16 05:44:37;;;;;;;5.50;4.60;;;8.00;78.90;;;;;;4956880;29;20114;-76
2021/03/16 05:47:03;;;;;;;5.05;4.22;;;8.00;79.00;;;;;;4956740;29;20027;-77
2021/03/16 05:49:30;;;;;;;5.93;4.57;;;7.90;78.50;;;;;;4957702;29;20130;-80
2021/03/16 05:51:56;;;;;;;5.00;4.18;;;8.00;79.60;;;;;;4957723;29;20035;-79
2021/03/16 05:54:23;;;;;;;5.63;4.30;;;8.00;79.20;;;;;;4957045;29;20028;-79
2021/03/16 05:56:49;;;;;;;4.72;4.10;;;8.00;79.60;;;;;;4957365;28;20034;-80
2021/03/16 05:59:15;;;;;;;5.75;4.50;;;8.10;79.50;;;;;;4957970;29;20027;-78
2021/03/16 06:01:41;;;;;;;5.18;4.25;;;8.00;80.50;;;;;;4956894;29;20050;-76
2021/03/16 06:04:07;;;;;;;5.50;4.70;;;8.00;80.30;;;;;;4957401;29;20047;-78
2021/03/16 06:06:33;;;;;;;6.00;4.50;;;8.10;80.50;;;;;;4956800;29;20385;-78
2021/03/16 06:08:59;;;;;;;4.80;4.18;;;8.10;80.50;;;;;;4957287;29;20045;-79
2021/03/16 06:11:25;;;;;;;6.35;5.72;;;8.00;80.80;;;;;;4956444;29;20027;-78
2021/03/16 06:13:58;;;;;;;10.27;4.75;;;8.00;81.10;;;;;;4956597;29;20032;-80
2021/03/16 06:16:24;;;;;;;13.05;8.48;;;8.00;82.30;;;;;;4955547;29;20027;-79
2021/03/16 06:18:50;;;;;;;35.47;19.23;;;9.20;92.20;;;;;;4956874;29;20093;-78
2021/03/16 06:21:21;;;;;;;19.98;12.27;;;9.80;90.00;;;;;;4966170;28;20027;-77
2021/03/16 06:23:55;;;;;;;48.03;27.50;;;9.80;88.20;;;;;;4975035;28;20137;-77
2021/03/16 06:26:25;;;;;;;42.17;22.88;;;9.80;85.90;;;;;;4974891;28;20035;-76
2021/03/16 06:28:51;;;;;;;54.25;32.40;;;10.00;85.80;;;;;;4955855;28;20385;-78
2021/03/16 06:31:24;;;;;;;20.75;13.73;;;9.80;80.30;;;;;;4954099;29;20512;-78
2021/03/16 06:33:51;;;;;;;7.40;5.47;;;9.60;75.90;;;;;;4955715;29;20027;-77
2021/03/16 06:36:17;;;;;;;7.35;4.88;;;8.50;77.40;;;;;;4955352;28;20115;-78
2021/03/16 06:38:43;;;;;;;6.38;4.63;;;8.30;79.80;;;;;;4955377;28;20110;-77
2021/03/16 06:41:14;;;;;;;8.52;4.20;;;8.30;81.00;;;;;;4962631;28;20034;-76
2021/03/16 06:43:40;;;;;;;;;;;8.30;82.00;;;;;;4971291;28;20051;-77
2021/03/16 06:46:06;;;;;;;5.95;4.55;;;8.30;82.70;;;;;;4960873;28;19916;-78
2021/03/16 06:48:35;;;;;;;7.65;5.13;;;8.30;82.40;;;;;;4940030;29;20405;-78
2021/03/16 06:51:14;;;;;;;8.05;4.72;;;8.40;81.60;;;;;;4955400;29;20039;-78
2021/03/16 06:53:40;;;;;;;6.03;4.85;;;8.30;80.40;;;;;;4955541;29;20023;-78
2021/03/16 06:56:06;;;;;;;6.10;4.60;;;8.40;81.20;;;;;;4955473;28;20027;-76
2021/03/16 06:58:35;;;;;;;6.28;5.20;;;8.50;80.70;;;;;;4950488;28;20050;-77
2021/03/16 07:01:16;;;;;;;6.55;4.78;;;8.50;80.90;;;;;;4956135;28;20031;-77
2021/03/16 07:03:43;;;;;;;5.88;4.97;;;8.40;82.30;;;;;;4966274;28;20039;-77
2021/03/16 07:06:09;;;;;;;24.70;14.55;;;8.60;81.60;;;;;;4954859;29;20035;-78
2021/03/16 07:08:36;;;;;;;58.17;33.92;;;9.10;88.50;;;;;;4953778;29;20031;-79
2021/03/16 07:11:04;;;;;;;11.75;8.88;;;10.40;89.60;;;;;;4954736;29;20090;-77
2021/03/16 07:13:32;;;;;;;8.60;6.43;;;9.80;77.30;;;;;;4952856;28;20362;-76
2021/03/16 07:15:59;;;;;;;8.38;5.60;;;8.90;78.00;;;;;;4955946;28;20037;-77
2021/03/16 07:18:26;;;;;;;6.28;4.97;;;8.80;80.60;;;;;;4954665;28;20058;-77
2021/03/16 07:20:57;;;;;;;7.45;5.10;;;8.60;80.50;;;;;;4954410;28;20051;-76
2021/03/16 07:23:27;;;;;;;6.53;4.85;;;8.50;79.40;;;;;;4971777;28;20038;-76
2021/03/16 07:25:53;;;;;;;7.07;5.15;;;8.50;80.90;;;;;;4973372;28;20042;-77
2021/03/16 07:28:20;;;;;;;6.63;5.07;;;8.50;81.10;;;;;;4940102;28;20113;-77
2021/03/16 07:30:46;;;;;;;7.22;5.55;;;8.50;81.70;;;;;;4956384;28;20388;-76
2021/03/16 07:33:14;;;;;;;6.93;5.07;;;8.50;82.00;;;;;;4956178;28;20361;-77
2021/03/16 07:35:42;;;;;;;6.28;4.75;;;8.60;81.60;;;;;;4973547;28;20039;-77
2021/03/16 07:38:09;;;;;;;6.68;4.43;;;8.60;79.50;;;;;;4973521;28;20038;-77
2021/03/16 07:40:39;;;;;;;7.05;4.82;;;8.30;79.20;;;;;;4970766;28;20027;-76
2021/03/16 07:43:11;;;;;;;8.07;5.25;;;8.40;77.40;;;;;;4952609;28;20030;-76
2021/03/16 07:45:37;;;;;;;6.78;5.28;;;8.60;75.40;;;;;;4954266;29;20130;-75
2021/03/16 07:48:20;;;;;;;6.38;5.03;;;8.70;74.20;;;;;;4958237;28;20105;-77
2021/03/16 07:50:47;;;;;;;6.97;5.40;;;8.80;72.60;;;;;;4961611;28;20117;-78
2021/03/16 07:53:26;;;;;;;6.75;4.90;;;8.80;72.20;;;;;;4947420;28;20078;-77
2021/03/16 07:55:52;;;;;;;8.05;4.80;;;8.90;71.40;;;;;;4961856;28;20042;-78
2021/03/16 07:58:25;;;;;;;7.70;4.68;;;8.70;71.10;;;;;;4944304;28;20190;-78
2021/03/16 08:01:02;;;;;;;11.98;4.93;;;8.50;71.80;;;;;;4963116;28;20027;-78
2021/03/16 08:03:28;;;;;;;8.35;5.53;;;8.70;73.60;;;;;;4944044;28;20105;-79
2021/03/16 08:05:55;;;;;;;12.02;5.38;;;8.70;72.50;;;;;;4954395;28;20030;-78
2021/03/16 08:08:21;;;;;;;6.18;4.72;;;8.80;73.00;;;;;;4963419;28;20027;-78
2021/03/16 08:10:47;;;;;;;5.90;4.65;;;8.80;72.70;;;;;;4963986;28;20030;-78
2021/03/16 08:13:19;;;;;;;7.25;4.90;;;8.40;72.10;;;;;;4966312;28;20501;-76
2021/03/16 08:15:47;;;;;;;6.43;4.95;;;8.60;73.40;;;;;;4959879;28;20046;-77
2021/03/16 08:18:14;;;;;;;6.78;4.60;;;8.60;72.80;;;;;;4959568;28;20023;-77
2021/03/16 08:20:43;;;;;;;7.32;4.80;;;8.70;73.20;;;;;;4961572;28;20022;-78
2021/03/16 08:23:11;;;;;;;6.72;5.00;;;8.70;73.50;;;;;;4962664;28;20015;-76
2021/03/16 08:25:37;;;;;;;7.32;4.95;;;8.70;73.70;;;;;;4950177;28;20286;-76
2021/03/16 08:28:07;;;;;;;6.20;4.80;;;8.70;74.10;;;;;;4969377;28;20057;-76
2021/03/16 08:30:37;;;;;;;5.80;4.80;;;8.70;71.70;;;;;;4945086;28;20023;-78
2021/03/16 08:33:14;;;;;;;7.00;5.43;;;8.50;69.70;;;;;;4966757;28;20390;-78
2021/03/16 08:35:52;;;;;;;7.32;5.40;;;8.70;68.70;;;;;;4972489;28;20100;-78
2021/03/16 08:38:32;;;;;;;6.55;4.95;;;8.70;67.80;;;;;;4972446;28;20060;-75
2021/03/16 08:41:11;;;;;;;8.37;5.70;;;8.10;67.00;;;;;;4960623;28;20381;-76
2021/03/16 08:43:37;;;;;;;6.35;4.97;;;8.40;66.60;;;;;;4961931;28;20042;-77
2021/03/16 08:46:04;;;;;;;5.93;4.82;;;8.40;66.60;;;;;;4957389;28;20058;-77
2021/03/16 08:48:32;;;;;;;8.35;5.25;;;8.60;66.30;;;;;;4967861;28;20023;-78
2021/03/16 08:50:59;;;;;;;9.57;4.70;;;8.80;66.40;;;;;;4972174;28;20054;-76
2021/03/16 08:53:25;;;;;;;9.82;4.95;;;8.30;64.70;;;;;;4961764;28;20345;-77
2021/03/16 08:55:53;;;;;;;7.32;5.13;;;8.30;63.40;;;;;;4952989;28;20243;-77
2021/03/16 08:58:20;;;;;;;8.55;4.60;;;8.70;63.90;;;;;;4959250;28;20027;-76
2021/03/16 09:00:46;;;;;;;5.80;4.55;;;8.50;64.00;;;;;;4972055;28;20057;-77
2021/03/16 09:03:13;;;;;;;6.45;4.78;;;8.20;64.40;;;;;;4971289;28;20031;-76
2021/03/16 09:05:40;;;;;;;6.60;5.18;;;8.50;65.20;;;;;;4954242;28;20485;-76
2021/03/16 09:08:07;;;;;;;7.70;5.07;;;8.20;63.60;;;;;;4972040;28;20033;-77
2021/03/16 09:10:33;;;;;;;6.38;4.95;;;8.30;63.80;;;;;;4970602;28;20051;-77
2021/03/16 09:13:00;;;;;;;6.80;5.03;;;7.90;63.00;;;;;;4967591;28;20046;-77
2021/03/16 09:15:29;;;;;;;8.85;4.70;;;8.30;63.70;;;;;;4952479;29;20106;-77
2021/03/16 09:17:58;;;;;;;7.10;5.05;;;8.40;63.20;;;;;;4952763;29;20023;-76
2021/03/16 09:20:41;;;;;;;6.85;5.13;;;8.60;63.40;;;;;;4939989;28;20031;-77
2021/03/16 09:23:10;;;;;;;6.45;5.13;;;8.80;63.00;;;;;;4971418;28;20505;-77
2021/03/16 09:25:41;;;;;;;7.40;4.78;;;8.10;62.20;;;;;;4954245;28;20043;-76
2021/03/16 09:28:09;;;;;;;;;;;8.20;63.80;;;;;;4949939;29;20031;-77
2021/03/16 09:30:39;;;;;;;7.75;5.40;;;8.50;63.40;;;;;;4951425;29;20009;-76
2021/03/16 09:33:07;;;;;;;7.35;5.30;;;8.30;62.20;;;;;;4951216;29;20062;-77
2021/03/16 09:35:33;;;;;;;6.55;5.10;;;8.40;62.90;;;;;;4952272;29;20148;-75
2021/03/16 09:38:03;;;;;;;6.45;4.90;;;8.50;61.90;;;;;;4952709;29;20030;-77
2021/03/16 09:40:36;;;;;;;8.68;5.35;;;8.60;62.50;;;;;;4941194;28;20027;-78
2021/03/16 09:43:03;;;;;;;10.27;6.22;;;9.10;67.40;;;;;;4966558;28;20420;-78
2021/03/16 09:45:30;;;;;;;6.85;5.00;;;9.80;64.80;;;;;;4951094;29;20051;-76
2021/03/16 09:47:58;;;;;;;6.65;5.10;;;9.70;60.30;;;;;;4952303;29;20038;-77
2021/03/16 09:50:35;;;;;;;6.75;4.93;;;8.80;59.70;;;;;;4956725;28;20369;-76
2021/03/16 09:53:03;;;;;;;6.50;4.90;;;8.60;59.90;;;;;;4959947;28;20023;-77
2021/03/16 09:55:29;;;;;;;8.52;4.97;;;9.40;62.60;;;;;;4961474;28;20034;-77
2021/03/16 09:57:56;;;;;;;7.22;5.70;;;9.90;59.20;;;;;;4947366;29;20106;-77
2021/03/16 10:00:23;;;;;;;7.63;5.13;;;8.60;60.60;;;;;;4955369;28;20062;-78
2021/03/16 10:02:49;;;;;;;8.32;4.40;;;9.80;61.80;;;;;;4943279;28;20027;-77
2021/03/16 10:05:17;;;;;;;6.55;4.50;;;9.00;57.20;;;;;;4944215;28;20040;-76
2021/03/16 10:07:50;;;;;;;6.50;4.50;;;9.30;59.80;;;;;;4959839;28;20023;-79
2021/03/16 10:10:29;;;;;;;6.80;4.60;;;9.90;57.30;;;;;;4962685;28;20114;-76
2021/03/16 10:13:03;;;;;;;8.15;4.90;;;9.20;58.00;;;;;;4954318;28;20530;-77
2021/03/16 10:15:35;;;;;;;10.35;5.10;;;9.20;57.90;;;;;;4973667;28;20547;-79
2021/03/16 10:18:03;;;;;;;6.75;5.05;;;9.20;57.90;;;;;;4967595;28;20042;-79
2021/03/16 10:20:32;;;;;;;7.63;5.28;;;9.10;57.50;;;;;;4967054;28;20392;-77
2021/03/16 10:23:00;;;;;;;7.13;4.93;;;9.20;57.70;;;;;;4972208;28;20404;-76
2021/03/16 10:25:30;;;;;;;7.93;5.13;;;9.10;57.70;;;;;;4968812;28;20459;-77
2021/03/16 10:27:59;;;;;;;6.15;4.68;;;8.90;58.60;;;;;;4945745;28;20043;-76
2021/03/16 10:30:36;;;;;;;7.28;4.88;;;8.90;57.30;;;;;;4949572;28;20389;-77
2021/03/16 10:33:05;;;;;;;10.10;4.35;;;8.50;57.40;;;;;;4962087;28;20032;-77
2021/03/16 10:35:32;;;;;;;7.88;5.00;;;8.50;56.80;;;;;;4960947;28;20112;-76
2021/03/16 10:37:58;;;;;;;6.75;5.18;;;8.80;57.80;;;;;;4960510;28;20175;-78
2021/03/16 10:40:24;;;;;;;6.00;4.60;;;8.90;57.60;;;;;;4941652;28;20389;-78
2021/03/16 10:42:51;;;;;;;6.60;4.88;;;8.50;57.50;;;;;;4969714;28;20485;-78
2021/03/16 10:45:17;;;;;;;10.25;5.28;;;10.00;63.00;;;;;;4937428;29;20086;-78
2021/03/16 10:47:43;;;;;;;7.95;4.97;;;9.60;57.10;;;;;;4955207;29;20023;-76
2021/03/16 10:50:10;;;;;;;8.50;4.68;;;9.40;56.90;;;;;;4954285;29;20039;-78
2021/03/16 10:52:38;;;;;;;5.97;4.60;;;9.40;57.10;;;;;;4944357;28;20073;-77
2021/03/16 10:55:05;;;;;;;6.93;4.40;;;9.40;56.40;;;;;;4959861;28;20059;-77
2021/03/16 10:57:31;;;;;;;8.63;4.60;;;9.40;56.70;;;;;;4942299;28;20023;-76
2021/03/16 10:59:57;;;;;;;6.13;4.65;;;9.20;57.50;;;;;;4944764;28;20038;-76
2021/03/16 11:02:23;;;;;;;9.45;4.82;;;9.30;57.10;;;;;;4966247;28;20039;-77
2021/03/16 11:04:48;;;;;;;7.53;5.05;;;9.30;56.80;;;;;;4973150;28;20507;-77
2021/03/16 11:07:14;;;;;;;6.65;4.90;;;9.20;57.00;;;;;;4974049;28;20023;-79
2021/03/16 11:09:40;;;;;;;7.57;5.57;;;9.30;57.50;;;;;;4972032;28;20027;-78
2021/03/16 11:12:06;;;;;;;7.70;4.50;;;9.40;57.40;;;;;;4963793;28;20026;-78
2021/03/16 11:14:32;;;;;;;7.28;4.90;;;8.90;57.80;;;;;;4968374;28;20377;-78
2021/03/16 11:17:00;;;;;;;5.80;4.60;;;8.70;59.90;;;;;;4967511;28;20031;-77
2021/03/16 11:19:26;;;;;;;7.40;4.40;;;8.70;59.70;;;;;;4945635;28;20117;-76
2021/03/16 11:21:52;;;;;;;6.93;4.70;;;8.50;59.70;;;;;;4963176;28;20030;-78
2021/03/16 11:24:19;;;;;;;7.28;5.00;;;8.80;60.50;;;;;;4960609;28;20036;-77
2021/03/16 11:26:47;;;;;;;6.78;4.80;;;9.00;60.20;;;;;;4963272;28;20046;-77
2021/03/16 11:29:14;;;;;;;5.75;4.50;;;8.80;59.30;;;;;;4964784;28;20135;-76
2021/03/16 11:31:40;;;;;;;6.38;4.22;;;8.70;59.70;;;;;;4944571;28;20027;-76
2021/03/16 11:34:06;;;;;;;6.97;4.80;;;8.50;60.60;;;;;;4962338;28;20106;-77
2021/03/16 11:36:33;;;;;;;9.57;5.05;;;8.70;61.20;;;;;;4962413;28;20026;-78
2021/03/16 11:38:59;;;;;;;7.15;5.07;;;9.00;60.00;;;;;;4941763;29;20039;-76
2021/03/16 11:41:25;;;;;;;5.60;4.78;;;8.90;60.00;;;;;;4964624;28;20034;-76
2021/03/16 11:43:51;;;;;;;5.75;4.35;;;8.70;60.10;;;;;;4965983;28;20034;-77
2021/03/16 11:46:18;;;;;;;8.55;5.07;;;8.70;59.60;;;;;;4963790;28;20050;-77
2021/03/16 11:48:44;;;;;;;6.95;4.70;;;9.00;59.80;;;;;;4945971;28;20162;-77
2021/03/16 11:51:10;;;;;;;6.25;4.38;;;9.10;59.20;;;;;;4970064;28;20113;-75
2021/03/16 11:53:36;;;;;;;7.00;5.40;;;9.20;59.50;;;;;;4962117;28;20625;-76
2021/03/16 11:56:01;;;;;;;6.50;4.65;;;9.10;60.00;;;;;;4953866;28;20485;-79
2021/03/16 11:58:27;;;;;;;5.80;4.40;;;8.80;60.10;;;;;;4961304;28;20039;-75
2021/03/16 12:01:06;;;;;;;6.88;4.85;;;9.00;60.50;;;;;;4972578;28;20543;-76
2021/03/16 12:03:34;;;;;;;13.98;4.18;;;8.60;61.80;;;;;;4972547;28;20081;-76
2021/03/16 12:06:00;;;;;;;33.88;5.55;;;8.70;62.40;;;;;;4953517;28;20517;-76
2021/03/16 12:08:26;;;;;;;9.23;4.47;;;8.60;63.70;;;;;;4962672;28;20034;-77
2021/03/16 12:10:52;;;;;;;9.75;5.15;;;8.10;65.20;;;;;;4960831;28;20027;-79
2021/03/16 12:13:20;;;;;;;5.65;4.78;;;8.30;66.60;;;;;;4962697;28;20030;-77
2021/03/16 12:15:46;;;;;;;5.95;4.82;;;8.50;66.40;;;;;;4960187;28;20389;-76
2021/03/16 12:18:12;;;;;;;7.32;5.20;;;8.40;65.40;;;;;;4962395;28;20422;-79
2021/03/16 12:20:40;;;;;;;10.50;5.32;;;8.70;65.90;;;;;;4961176;28;20039;-79
2021/03/16 12:23:06;;;;;;;5.95;4.90;;;8.70;65.60;;;;;;4961304;28;20018;-76
2021/03/16 12:25:34;;;;;;;7.38;4.88;;;8.80;66.00;;;;;;4945401;28;20042;-75
2021/03/16 12:27:59;;;;;;;9.05;4.80;;;8.50;65.20;;;;;;4944455;28;20038;-77
2021/03/16 12:30:25;;;;;;;9.07;5.00;;;8.50;66.00;;;;;;4962153;28;20027;-77
2021/03/16 12:32:51;;;;;;;6.35;4.68;;;8.80;66.10;;;;;;4958012;28;20492;-77
2021/03/16 12:35:17;;;;;;;9.05;5.45;;;8.80;67.00;;;;;;4957321;28;20069;-76
2021/03/16 12:37:43;;;;;;;10.10;5.13;;;8.90;67.00;;;;;;4961127;28;20047;-80
2021/03/16 12:40:11;;;;;;;6.70;4.82;;;8.90;67.40;;;;;;4960357;28;20380;-77
2021/03/16 12:42:37;;;;;;;6.20;4.90;;;9.00;67.10;;;;;;4960393;28;20402;-77
2021/03/16 12:45:04;;;;;;;8.48;4.80;;;9.00;66.70;;;;;;4959722;28;20051;-78
2021/03/16 12:47:30;;;;;;;6.03;4.68;;;9.10;66.10;;;;;;4952112;28;20078;-76
2021/03/16 12:49:56;;;;;;;10.38;4.80;;;8.80;63.00;;;;;;4953041;29;20396;-77
2021/03/16 12:52:22;;;;;;;7.95;5.15;;;8.90;62.70;;;;;;4953683;28;20473;-79
2021/03/16 12:54:48;;;;;;;6.65;5.00;;;8.90;62.90;;;;;;4972174;28;20030;-77
2021/03/16 12:57:16;;;;;;;8.75;4.85;;;9.00;62.80;;;;;;4972017;28;20030;-76
2021/03/16 12:59:43;;;;;;;5.90;4.88;;;9.10;63.00;;;;;;4936640;28;20035;-77